createdAt,value
2022-09-10T00:01:50.799Z,45.80
2022-09-10T00:04:17.707Z,45.60
2022-09-10T00:06:44.756Z,45.80
2022-09-10T00:09:12.161Z,45.70
2022-09-10T00:11:40.633Z,45.80
2022-09-10T00:14:08.818Z,45.80
2022-09-10T00:16:35.429Z,45.90
2022-09-10T00:19:02.137Z,45.90
2022-09-10T00:21:29.942Z,46.40
2022-09-10T00:23:56.633Z,46.20
2022-09-10T00:26:25.112Z,46.40
2022-09-10T00:28:52.504Z,46.30
2022-09-10T00:31:19.470Z,46.20
2022-09-10T00:33:46.115Z,46.40
2022-09-10T00:36:19.514Z,46.40
2022-09-10T00:38:46.660Z,46.30
2022-09-10T00:41:14.031Z,46.10
2022-09-10T00:43:51.109Z,46.10
2022-09-10T00:46:31.585Z,46.20
2022-09-10T00:48:58.794Z,46.20
2022-09-10T00:51:26.248Z,46.20
2022-09-10T00:53:53.541Z,46.20
2022-09-10T00:56:20.227Z,46.30
2022-09-10T00:58:47.512Z,46.10
2022-09-10T01:01:14.540Z,46.30
2022-09-10T01:03:41.747Z,46.10
2022-09-10T01:06:08.432Z,46.50
2022-09-10T01:08:35.068Z,46.20
2022-09-10T01:11:20.013Z,46.10
2022-09-10T01:14:03.570Z,46.10
2022-09-10T01:16:55.510Z,46.10
2022-09-10T01:19:24.937Z,46.00
2022-09-10T01:21:51.878Z,46.10
2022-09-10T01:24:39.598Z,46.00
2022-09-10T01:27:27.592Z,46.10
2022-09-10T01:30:09.116Z,46.00
2022-09-10T01:32:51.517Z,46.20
2022-09-10T01:35:18.787Z,46.10
2022-09-10T01:37:54.499Z,46.20
2022-09-10T01:40:28.804Z,46.50
2022-09-10T01:43:01.197Z,46.40
2022-09-10T01:45:28.672Z,46.40
2022-09-10T01:48:19.328Z,46.30
2022-09-10T01:51:04.346Z,46.40
2022-09-10T01:53:52.510Z,46.60
2022-09-10T01:56:40.698Z,46.50
2022-09-10T01:59:24.789Z,46.40
2022-09-10T02:01:55.302Z,46.40
2022-09-10T02:04:21.970Z,46.40
2022-09-10T02:06:48.694Z,46.30
2022-09-10T02:09:15.581Z,46.30
2022-09-10T02:11:50.169Z,46.40
2022-09-10T02:14:16.948Z,46.40
2022-09-10T02:16:47.295Z,46.90
2022-09-10T02:19:14.413Z,46.40
2022-09-10T02:21:41.009Z,46.40
2022-09-10T02:24:10.312Z,46.30
2022-09-10T02:26:39.586Z,46.60
2022-09-10T02:29:06.670Z,46.70
2022-09-10T02:31:33.402Z,46.90
2022-09-10T02:34:00.184Z,46.90
2022-09-10T02:36:28.856Z,47.00
2022-09-10T02:38:58.827Z,46.70
2022-09-10T02:41:25.901Z,46.70
2022-09-10T02:43:52.887Z,46.80
2022-09-10T02:46:19.592Z,46.80
2022-09-10T02:48:46.205Z,46.70
2022-09-10T02:51:13.778Z,47.10
2022-09-10T02:53:40.367Z,47.10
2022-09-10T02:56:07.767Z,47.10
2022-09-10T02:58:34.448Z,47.00
2022-09-10T03:01:11.746Z,46.90
2022-09-10T03:03:39.430Z,47.20
2022-09-10T03:06:06.538Z,47.10
2022-09-10T03:08:33.253Z,47.20
2022-09-10T03:10:59.946Z,47.70
2022-09-10T03:13:29.856Z,48.00
2022-09-10T03:15:56.836Z,47.50
2022-09-10T03:18:23.551Z,47.80
2022-09-10T03:20:51.337Z,47.70
2022-09-10T03:23:18.368Z,47.80
2022-09-10T03:25:49.081Z,47.70
2022-09-10T03:28:16.357Z,48.00
2022-09-10T03:30:43.004Z,48.20
2022-09-10T03:33:11.605Z,48.30
2022-09-10T03:35:38.569Z,48.00
2022-09-10T03:38:05.686Z,48.20
2022-09-10T03:40:33.020Z,48.30
2022-09-10T03:43:00.921Z,48.20
2022-09-10T03:45:28.614Z,48.20
2022-09-10T03:47:55.273Z,48.20
2022-09-10T03:50:21.929Z,48.10
2022-09-10T03:52:48.510Z,48.00
2022-09-10T03:55:15.397Z,48.70
2022-09-10T03:57:42.032Z,48.20
2022-09-10T04:00:11.962Z,48.20
2022-09-10T04:02:38.554Z,48.30
2022-09-10T04:05:05.833Z,48.30
2022-09-10T04:07:32.479Z,48.30
2022-09-10T04:09:59.437Z,48.50
2022-09-10T04:12:26.997Z,48.50
2022-09-10T04:14:53.750Z,48.40
2022-09-10T04:17:20.707Z,49.20
2022-09-10T04:19:47.339Z,48.40
2022-09-10T04:22:13.989Z,49.10
2022-09-10T04:24:40.718Z,48.20
2022-09-10T04:27:07.518Z,48.20
2022-09-10T04:29:34.126Z,48.20
2022-09-10T04:32:00.774Z,48.30
2022-09-10T04:34:28.882Z,48.20
2022-09-10T04:36:55.552Z,48.90
2022-09-10T04:39:22.261Z,48.30
2022-09-10T04:41:48.858Z,48.30
2022-09-10T04:44:20.069Z,48.30
2022-09-10T04:46:47.778Z,48.50
2022-09-10T04:49:14.474Z,48.40
2022-09-10T04:51:41.274Z,48.40
2022-09-10T04:54:07.967Z,48.50
2022-09-10T04:56:34.868Z,48.60
2022-09-10T04:59:01.452Z,48.70
2022-09-10T05:01:31.254Z,48.70
2022-09-10T05:03:57.834Z,48.80
2022-09-10T05:06:24.436Z,48.80
2022-09-10T05:08:51.016Z,48.70
2022-09-10T05:11:19.597Z,48.70
2022-09-10T05:13:46.243Z,48.60
2022-09-10T05:16:12.919Z,48.70
2022-09-10T05:18:39.600Z,48.70
2022-09-10T05:21:06.459Z,48.70
2022-09-10T05:23:33.015Z,48.80
2022-09-10T05:25:59.824Z,48.80
2022-09-10T05:28:26.431Z,48.90
2022-09-10T05:30:53.019Z,48.90
2022-09-10T05:33:19.608Z,48.80
2022-09-10T05:35:48.529Z,48.90
2022-09-10T05:38:15.118Z,49.00
2022-09-10T05:40:42.718Z,48.90
2022-09-10T05:43:10.257Z,48.90
2022-09-10T05:45:37.235Z,49.00
2022-09-10T05:48:04.010Z,49.00
2022-09-10T05:50:30.643Z,49.00
2022-09-10T05:52:57.465Z,49.00
2022-09-10T05:55:24.443Z,48.90
2022-09-10T05:57:51.521Z,48.80
2022-09-10T06:00:18.328Z,48.80
2022-09-10T06:02:45.466Z,48.80
2022-09-10T06:05:12.700Z,48.70
2022-09-10T06:07:40.040Z,48.70
2022-09-10T06:10:07.232Z,48.70
2022-09-10T06:12:35.397Z,48.60
2022-09-10T06:15:03.623Z,48.70
2022-09-10T06:17:30.342Z,48.70
2022-09-10T06:19:56.914Z,48.80
2022-09-10T06:22:23.540Z,48.80
2022-09-10T06:24:50.699Z,48.90
2022-09-10T06:27:17.313Z,48.80
2022-09-10T06:29:43.910Z,48.80
2022-09-10T06:32:10.535Z,48.90
2022-09-10T06:34:37.104Z,48.90
2022-09-10T06:37:04.160Z,48.90
2022-09-10T06:39:30.788Z,49.00
2022-09-10T06:41:57.513Z,48.90
2022-09-10T06:44:26.244Z,48.90
2022-09-10T06:49:40.495Z,48.90
2022-09-10T06:52:07.162Z,48.80
2022-09-10T06:54:33.789Z,48.90
2022-09-10T06:57:01.358Z,48.80
2022-09-10T06:59:28.057Z,48.70
2022-09-10T07:01:55.341Z,48.60
2022-09-10T07:04:22.074Z,48.60
2022-09-10T07:06:48.670Z,48.40
2022-09-10T07:09:16.276Z,48.40
2022-09-10T07:11:42.847Z,48.30
2022-09-10T07:14:12.710Z,48.40
2022-09-10T07:16:42.079Z,48.50
2022-09-10T07:19:08.767Z,48.40
2022-09-10T07:21:37.717Z,48.30
2022-09-10T07:24:05.802Z,48.20
2022-09-10T07:26:32.409Z,48.30
2022-09-10T07:28:59.277Z,48.30
2022-09-10T07:31:33.883Z,48.40
2022-09-10T07:34:03.910Z,48.60
2022-09-10T07:36:30.697Z,48.70
2022-09-10T07:38:57.916Z,48.70
2022-09-10T07:41:28.015Z,49.10
2022-09-10T07:43:55.501Z,49.00
2022-09-10T07:46:22.360Z,49.20
2022-09-10T07:48:53.004Z,49.00
2022-09-10T07:51:19.577Z,49.60
2022-09-10T07:53:50.461Z,49.70
2022-09-10T07:56:17.456Z,49.90
2022-09-10T07:58:44.733Z,50.00
2022-09-10T08:01:12.639Z,50.10
2022-09-10T08:03:39.924Z,50.10
2022-09-10T08:06:07.640Z,50.20
2022-09-10T08:08:39.396Z,50.40
2022-09-10T08:11:13.175Z,50.50
2022-09-10T08:13:47.476Z,50.50
2022-09-10T08:16:16.302Z,50.50
2022-09-10T08:18:47.486Z,50.70
2022-09-10T08:21:14.375Z,50.70
2022-09-10T08:23:41.030Z,50.50
2022-09-10T08:26:08.193Z,50.50
2022-09-10T08:28:38.155Z,50.50
2022-09-10T08:31:08.149Z,50.50
2022-09-10T08:33:35.611Z,50.50
2022-09-10T08:36:03.158Z,50.50
2022-09-10T08:38:37.454Z,50.30
2022-09-10T08:41:38.286Z,50.20
2022-09-10T08:44:23.673Z,50.40
2022-09-10T08:46:55.553Z,50.40
2022-09-10T08:49:44.474Z,50.20
2022-09-10T08:52:33.974Z,50.20
2022-09-10T08:55:19.016Z,50.10
2022-09-10T08:57:50.577Z,50.00
2022-09-10T09:00:23.310Z,50.30
2022-09-10T09:02:54.257Z,50.30
2022-09-10T09:05:25.714Z,50.20
2022-09-10T09:07:52.405Z,49.90
2022-09-10T09:10:20.511Z,50.10
2022-09-10T09:13:26.826Z,50.10
2022-09-10T09:16:12.333Z,50.10
2022-09-10T09:19:00.886Z,48.90
2022-09-10T09:21:51.160Z,48.70
2022-09-10T09:24:31.940Z,48.70
2022-09-10T09:27:01.801Z,48.50
2022-09-10T09:29:35.365Z,48.70
2022-09-10T09:32:03.648Z,48.20
2022-09-10T09:34:37.143Z,47.70
2022-09-10T09:37:05.361Z,47.30
2022-09-10T09:39:42.477Z,48.70
2022-09-10T09:42:22.387Z,48.40
2022-09-10T09:45:03.399Z,48.10
2022-09-10T09:47:29.995Z,45.60
2022-09-10T09:49:56.744Z,44.10
2022-09-10T09:52:24.780Z,44.30
2022-09-10T09:55:13.652Z,44.10
2022-09-10T09:57:42.546Z,40.90
2022-09-10T10:00:36.269Z,38.80
2022-09-10T10:03:26.331Z,39.40
2022-09-10T10:06:06.462Z,38.60
2022-09-10T10:08:34.165Z,38.60
2022-09-10T10:11:03.442Z,39.30
2022-09-10T10:13:39.954Z,39.60
2022-09-10T10:16:23.449Z,39.70
2022-09-10T10:18:50.255Z,40.10
2022-09-10T10:21:30.428Z,40.40
2022-09-10T10:23:57.100Z,41.30
2022-09-10T10:26:33.587Z,41.90
2022-09-10T10:29:04.105Z,43.20
2022-09-10T10:31:36.708Z,43.70
2022-09-10T10:34:09.033Z,44.30
2022-09-10T10:36:52.255Z,44.60
2022-09-10T10:39:40.084Z,45.30
2022-09-10T10:42:18.584Z,45.90
2022-09-10T10:45:02.591Z,46.60
2022-09-10T10:47:34.467Z,47.30
2022-09-10T10:50:33.404Z,47.10
2022-09-10T10:53:21.597Z,47.30
2022-09-10T10:55:50.340Z,47.90
2022-09-10T10:58:44.319Z,47.40
2022-09-10T11:01:21.351Z,47.90
2022-09-10T11:04:22.781Z,49.40
2022-09-10T11:06:57.278Z,51.00
2022-09-10T11:10:23.360Z,50.30
2022-09-10T11:13:05.872Z,49.10
2022-09-10T11:15:52.380Z,46.60
2022-09-10T11:18:24.170Z,45.50
2022-09-10T11:21:03.028Z,44.20
2022-09-10T11:23:34.048Z,43.50
2022-09-10T11:26:12.164Z,43.40
2022-09-10T11:28:40.287Z,43.80
2022-09-10T11:31:17.282Z,43.30
2022-09-10T11:34:04.586Z,43.90
2022-09-10T11:36:47.246Z,44.30
2022-09-10T11:39:34.608Z,44.70
2022-09-10T11:42:13.524Z,45.00
2022-09-10T11:45:03.500Z,45.40
2022-09-10T11:47:33.370Z,45.60
2022-09-10T11:50:01.427Z,46.10
2022-09-10T11:52:30.045Z,46.60
2022-09-10T11:54:57.279Z,47.00
2022-09-10T11:57:27.526Z,47.30
2022-09-10T12:00:12.099Z,47.90
2022-09-10T12:03:05.260Z,47.80
2022-09-10T12:06:04.250Z,47.80
2022-09-10T12:08:38.455Z,50.20
2022-09-10T12:11:42.967Z,51.30
2022-09-10T12:14:17.246Z,50.00
2022-09-10T12:16:48.072Z,50.70
2022-09-10T12:19:32.130Z,51.70
2022-09-10T12:22:04.016Z,51.10
2022-09-10T12:24:32.294Z,50.70
2022-09-10T12:27:00.666Z,50.70
2022-09-10T12:29:30.558Z,50.80
2022-09-10T12:32:20.130Z,52.40
2022-09-10T12:34:48.468Z,51.60
2022-09-10T12:37:22.563Z,50.40
2022-09-10T12:39:50.237Z,49.50
2022-09-10T12:42:31.085Z,47.30
2022-09-10T12:44:58.341Z,45.80
2022-09-10T12:47:41.378Z,42.10
2022-09-10T12:50:30.331Z,41.30
2022-09-10T12:53:26.809Z,39.00
2022-09-10T12:56:15.621Z,39.20
2022-09-10T12:58:48.429Z,38.20
2022-09-10T13:01:36.710Z,38.50
2022-09-10T13:04:03.585Z,38.70
2022-09-10T13:06:40.453Z,39.00
2022-09-10T13:09:28.709Z,39.80
2022-09-10T13:11:56.856Z,40.60
2022-09-10T13:14:26.353Z,40.70
2022-09-10T13:16:52.932Z,41.30
2022-09-10T13:19:19.571Z,42.20
2022-09-10T13:21:47.923Z,42.70
2022-09-10T13:24:34.027Z,42.80
2022-09-10T13:27:12.621Z,43.00
2022-09-10T13:29:40.213Z,43.30
2022-09-10T13:32:27.375Z,43.50
2022-09-10T13:35:09.143Z,43.50
2022-09-10T13:37:59.995Z,43.40
2022-09-10T13:40:59.959Z,43.50
2022-09-10T13:43:42.408Z,43.50
2022-09-10T13:46:12.907Z,44.10
2022-09-10T13:49:19.117Z,44.40
2022-09-10T13:51:52.543Z,44.40
2022-09-10T13:54:31.269Z,44.40
2022-09-10T13:57:01.114Z,44.20
2022-09-10T13:59:31.408Z,44.10
2022-09-10T14:02:02.164Z,44.10
2022-09-10T14:04:44.420Z,44.10
2022-09-10T14:07:23.933Z,44.50
2022-09-10T14:09:56.745Z,43.70
2022-09-10T14:12:26.091Z,43.70
2022-09-10T14:14:54.744Z,43.80
2022-09-10T14:17:27.228Z,43.70
2022-09-10T14:19:59.244Z,43.70
2022-09-10T14:22:26.480Z,43.80
2022-09-10T14:25:01.414Z,43.80
2022-09-10T14:27:30.991Z,43.60
2022-09-10T14:30:17.047Z,43.50
2022-09-10T14:32:43.889Z,43.90
2022-09-10T14:35:39.172Z,43.90
2022-09-10T14:38:24.455Z,44.10
2022-09-10T14:41:06.714Z,44.20
2022-09-10T14:43:38.974Z,44.40
2022-09-10T14:46:11.052Z,44.50
2022-09-10T14:48:41.257Z,44.70
2022-09-10T14:51:27.465Z,45.00
2022-09-10T14:53:55.256Z,45.10
2022-09-10T14:56:29.036Z,45.40
2022-09-10T14:59:00.664Z,45.10
2022-09-10T15:01:27.650Z,45.20
2022-09-10T15:03:54.548Z,45.30
2022-09-10T15:06:25.615Z,45.50
2022-09-10T15:08:56.087Z,46.30
2022-09-10T15:11:26.434Z,46.50
2022-09-10T15:13:55.790Z,46.40
2022-09-10T15:16:23.930Z,46.10
2022-09-10T15:18:51.830Z,46.20
2022-09-10T15:21:19.962Z,46.40
2022-09-10T15:23:48.168Z,46.40
2022-09-10T15:26:14.975Z,46.50
2022-09-10T15:28:41.804Z,46.30
2022-09-10T15:31:08.763Z,46.40
2022-09-10T15:33:36.109Z,46.40
2022-09-10T15:36:03.011Z,46.30
2022-09-10T15:38:29.745Z,46.50
2022-09-10T15:41:08.401Z,46.40
2022-09-10T15:43:40.592Z,47.10
2022-09-10T15:46:08.948Z,47.70
2022-09-10T15:48:35.700Z,48.20
2022-09-10T15:51:16.008Z,49.50
2022-09-10T15:53:44.421Z,50.00
2022-09-10T15:56:12.533Z,50.00
2022-09-10T15:58:39.521Z,49.40
2022-09-10T16:01:11.862Z,49.60
2022-09-10T16:03:50.195Z,49.80
2022-09-10T16:06:19.726Z,49.70
2022-09-10T16:08:59.667Z,49.70
2022-09-10T16:11:28.119Z,49.60
2022-09-10T16:14:02.190Z,50.00
2022-09-10T16:16:31.652Z,50.10
2022-09-10T16:18:59.475Z,50.20
2022-09-10T16:21:31.140Z,50.50
2022-09-10T16:23:59.488Z,50.30
2022-09-10T16:26:28.180Z,50.60
2022-09-10T16:28:58.305Z,50.30
2022-09-10T16:31:26.500Z,50.30
2022-09-10T16:33:54.997Z,50.60
2022-09-10T16:36:23.302Z,50.60
2022-09-10T16:38:54.304Z,50.40
2022-09-10T16:41:21.013Z,50.90
2022-09-10T16:43:47.594Z,50.60
2022-09-10T16:46:14.312Z,50.30
2022-09-10T16:48:42.200Z,50.10
2022-09-10T16:51:15.664Z,50.20
2022-09-10T16:53:44.592Z,50.50
2022-09-10T16:56:16.662Z,50.30
2022-09-10T16:58:48.370Z,50.30
2022-09-10T17:01:15.910Z,50.30
2022-09-10T17:03:44.332Z,50.10
2022-09-10T17:06:14.850Z,50.10
2022-09-10T17:08:41.623Z,50.00
2022-09-10T17:11:13.034Z,49.70
2022-09-10T17:13:41.035Z,49.90
2022-09-10T17:16:36.586Z,49.70
2022-09-10T17:19:18.743Z,49.80
2022-09-10T17:21:50.892Z,49.70
2022-09-10T17:24:21.045Z,49.70
2022-09-10T17:26:50.287Z,49.70
2022-09-10T17:29:22.240Z,49.70
2022-09-10T17:31:48.989Z,49.80
2022-09-10T17:34:16.379Z,49.70
2022-09-10T17:36:45.364Z,49.70
2022-09-10T17:39:12.132Z,49.70
2022-09-10T17:41:39.525Z,49.50
2022-09-10T17:44:08.229Z,49.70
2022-09-10T17:46:36.066Z,49.80
2022-09-10T17:49:02.902Z,49.90
2022-09-10T17:51:30.688Z,49.90
2022-09-10T17:53:57.288Z,50.00
2022-09-10T17:56:24.965Z,50.20
2022-09-10T17:58:57.155Z,50.30
2022-09-10T18:01:25.394Z,50.50
2022-09-10T18:03:52.419Z,50.70
2022-09-10T18:06:19.258Z,50.60
2022-09-10T18:08:45.851Z,51.00
2022-09-10T18:11:17.535Z,50.60
2022-09-10T18:13:47.907Z,50.50
2022-09-10T18:16:16.735Z,50.80
2022-09-10T18:18:45.490Z,50.70
2022-09-10T18:21:16.609Z,50.60
2022-09-10T18:23:44.146Z,50.80
2022-09-10T18:26:12.723Z,50.60
2022-09-10T18:28:43.767Z,50.80
2022-09-10T18:31:11.564Z,50.90
2022-09-10T18:33:40.837Z,50.80
2022-09-10T18:36:12.733Z,51.10
2022-09-10T18:38:39.776Z,50.90
2022-09-10T18:41:06.592Z,51.10
2022-09-10T18:43:34.006Z,51.00
2022-09-10T18:46:04.301Z,51.10
2022-09-10T18:48:36.732Z,51.10
2022-09-10T18:51:12.755Z,51.30
2022-09-10T18:53:40.144Z,51.40
2022-09-10T18:56:14.994Z,51.30
2022-09-10T18:58:42.069Z,51.50
2022-09-10T19:01:12.040Z,51.40
2022-09-10T19:03:48.157Z,51.80
2022-09-10T19:06:18.893Z,51.90
2022-09-10T19:08:57.439Z,51.90
2022-09-10T19:11:27.758Z,51.70
2022-09-10T19:13:56.589Z,51.80
2022-09-10T19:16:25.093Z,51.50
2022-09-10T19:18:56.986Z,52.40
2022-09-10T19:21:24.582Z,52.30
2022-09-10T19:23:53.428Z,52.10
2022-09-10T19:26:24.486Z,52.00
2022-09-10T19:28:57.462Z,52.10
2022-09-10T19:31:25.058Z,52.00
2022-09-10T19:33:56.307Z,52.10
2022-09-10T19:36:27.341Z,52.30
2022-09-10T19:38:57.203Z,52.30
2022-09-10T19:41:25.525Z,52.00
2022-09-10T19:43:53.246Z,52.10
2022-09-10T19:46:23.242Z,52.50
2022-09-10T19:48:53.179Z,52.50
2022-09-10T19:51:22.578Z,52.30
2022-09-10T19:53:52.940Z,52.80
2022-09-10T19:56:21.001Z,52.20
2022-09-10T19:58:52.464Z,52.70
2022-09-10T20:01:21.189Z,52.60
2022-09-10T20:03:48.300Z,53.10
2022-09-10T20:06:16.769Z,52.40
2022-09-10T20:08:43.894Z,52.80
2022-09-10T20:11:15.388Z,52.60
2022-09-10T20:13:42.131Z,52.90
2022-09-10T20:16:09.028Z,52.30
2022-09-10T20:18:35.962Z,52.40
2022-09-10T20:21:31.653Z,53.00
2022-09-10T20:24:00.250Z,52.80
2022-09-10T20:26:26.837Z,52.90
2022-09-10T20:28:55.659Z,53.00
2022-09-10T20:31:25.392Z,53.20
2022-09-10T20:33:56.485Z,53.30
2022-09-10T20:36:25.344Z,53.70
2022-09-10T20:38:53.170Z,53.40
2022-09-10T20:41:20.031Z,53.30
2022-09-10T20:43:51.711Z,53.20
2022-09-10T20:46:19.332Z,53.30
2022-09-10T20:48:49.243Z,53.30
2022-09-10T20:51:17.776Z,53.30
2022-09-10T20:53:44.513Z,53.20
2022-09-10T20:56:13.039Z,53.20
2022-09-10T20:58:39.806Z,53.00
2022-09-10T21:01:07.072Z,53.10
2022-09-10T21:03:37.256Z,53.20
2022-09-10T21:06:04.134Z,53.10
2022-09-10T21:08:31.676Z,53.10
2022-09-10T21:11:08.623Z,53.00
2022-09-10T21:13:37.544Z,53.20
2022-09-10T21:16:14.362Z,53.00
2022-09-10T21:18:42.557Z,53.00
2022-09-10T21:21:18.342Z,52.90
2022-09-10T21:23:49.464Z,53.10
2022-09-10T21:26:17.578Z,53.10
2022-09-10T21:28:46.999Z,53.10
2022-09-10T21:31:14.126Z,53.00
2022-09-10T21:33:41.754Z,53.10
2022-09-10T21:36:16.270Z,53.20
2022-09-10T21:38:53.280Z,53.00
2022-09-10T21:41:31.745Z,53.10
2022-09-10T21:44:00.246Z,53.30
2022-09-10T21:46:30.103Z,53.30
2022-09-10T21:49:13.399Z,53.30
2022-09-10T21:51:41.174Z,52.90
2022-09-10T21:54:09.185Z,53.30
2022-09-10T21:56:40.768Z,53.40
2022-09-10T21:59:09.790Z,53.60
2022-09-10T22:01:36.717Z,53.20
2022-09-10T22:04:04.144Z,53.10
2022-09-10T22:06:40.126Z,53.00
2022-09-10T22:09:12.442Z,52.80
2022-09-10T22:11:43.322Z,54.10
2022-09-10T22:14:19.191Z,53.40
2022-09-10T22:17:07.129Z,53.30
2022-09-10T22:19:58.951Z,53.70
2022-09-10T22:22:26.516Z,52.70
2022-09-10T22:24:56.246Z,52.80
2022-09-10T22:27:23.555Z,52.90
2022-09-10T22:30:11.555Z,52.70
2022-09-10T22:32:39.872Z,53.20
2022-09-10T22:35:06.890Z,53.40
2022-09-10T22:37:33.667Z,53.10
2022-09-10T22:40:00.773Z,53.00
2022-09-10T22:42:27.546Z,53.30
2022-09-10T22:44:54.269Z,52.80
2022-09-10T22:47:21.028Z,53.10
2022-09-10T22:49:47.603Z,53.50
2022-09-10T22:52:14.369Z,53.50
2022-09-10T22:54:59.783Z,53.50
2022-09-10T22:57:28.855Z,53.70
2022-09-10T22:59:56.114Z,53.50
2022-09-10T23:02:22.860Z,53.50
2022-09-10T23:04:50.869Z,53.50
2022-09-10T23:07:21.643Z,53.50
2022-09-10T23:09:48.409Z,53.50
2022-09-10T23:12:15.281Z,53.50
2022-09-10T23:14:42.026Z,53.00
2022-09-10T23:17:08.921Z,53.00
2022-09-10T23:19:35.939Z,53.20
2022-09-10T23:22:03.415Z,53.60
2022-09-10T23:24:30.216Z,53.60
2022-09-10T23:26:57.913Z,53.00
2022-09-10T23:29:25.131Z,53.50
2022-09-10T23:31:55.732Z,53.50
2022-09-10T23:34:33.443Z,54.50
2022-09-10T23:37:00.250Z,54.10
2022-09-10T23:39:27.049Z,53.50
2022-09-10T23:41:55.233Z,53.70
2022-09-10T23:44:21.886Z,54.00
2022-09-10T23:46:48.741Z,53.70
2022-09-10T23:49:15.942Z,53.20
2022-09-10T23:51:42.738Z,53.50
2022-09-10T23:54:10.378Z,53.50
2022-09-10T23:56:37.816Z,53.90
2022-09-10T23:59:04.994Z,53.90
